AAL1900 KMIA-MBPV
Flight info
| Callsign | AAL1900 |
|---|---|
| Flight time | 1h 8m |
| Altitude | 39000 |
| Route | KLADA2 BITAC DCT SOLEI |
| Aircraft | A332/H-SDE3GHIJ2J3J5M1RVWXY/LB2D1 |
Departure
| Time | 2026-05-05 14:55 |
|---|---|
| Airport | Miami International Airport (KMIA) |
Arrival
| Time | 2026-05-05 16:04 |
|---|---|
| Airport | Providenciales International Airport (MBPV) |
| Time | Latitude | Longitude | Altitude | Speed | Heading |
|---|---|---|---|---|---|
| 2026-05-05 14:25 | 25.79850 | -80.27103 | 21 ft | 0 kts | 288° |
| 2026-05-05 14:41 | 25.79849 | -80.27098 | 19 ft | 3 kts | 289° |
| 2026-05-05 14:41 | 25.79838 | -80.27071 | 22 ft | 4 kts | 302° |
| 2026-05-05 14:41 | 25.79821 | -80.27049 | 22 ft | 4 kts | 332° |
| 2026-05-05 14:42 | 25.79802 | -80.27045 | 22 ft | 2 kts | 37° |
| 2026-05-05 14:42 | 25.79801 | -80.27046 | 23 ft | 0 kts | 38° |
| 2026-05-05 14:45 | 25.79801 | -80.27045 | 22 ft | 1 kts | 38° |
| 2026-05-05 14:45 | 25.79814 | -80.27034 | 22 ft | 4 kts | 38° |
| 2026-05-05 14:45 | 25.79842 | -80.27017 | 19 ft | 4 kts | 20° |
| 2026-05-05 14:45 | 25.79880 | -80.27001 | 19 ft | 7 kts | 20° |
| 2026-05-05 14:46 | 25.79936 | -80.26996 | 19 ft | 9 kts | 339° |
| 2026-05-05 14:46 | 25.79975 | -80.27043 | 20 ft | 0 kts | 306° |
| 2026-05-05 14:47 | 25.79981 | -80.27054 | 20 ft | 3 kts | 306° |
| 2026-05-05 14:47 | 25.80001 | -80.27080 | 19 ft | 6 kts | 316° |
| 2026-05-05 14:47 | 25.80041 | -80.27100 | 20 ft | 8 kts | 338° |
| 2026-05-05 14:47 | 25.80082 | -80.27141 | 20 ft | 8 kts | 292° |
| 2026-05-05 14:48 | 25.80082 | -80.27211 | 20 ft | 10 kts | 268° |
| 2026-05-05 14:48 | 25.80078 | -80.27303 | 24 ft | 13 kts | 267° |
| 2026-05-05 14:48 | 25.80073 | -80.27418 | 19 ft | 17 kts | 267° |
| 2026-05-05 14:48 | 25.80066 | -80.27560 | 19 ft | 20 kts | 267° |
| 2026-05-05 14:49 | 25.80061 | -80.27718 | 19 ft | 22 kts | 268° |
| 2026-05-05 14:49 | 25.80053 | -80.27899 | 18 ft | 25 kts | 266° |
| 2026-05-05 14:49 | 25.80045 | -80.28096 | 18 ft | 27 kts | 268° |
| 2026-05-05 14:49 | 25.80037 | -80.28305 | 19 ft | 28 kts | 267° |
| 2026-05-05 14:50 | 25.80027 | -80.28530 | 19 ft | 30 kts | 267° |
| 2026-05-05 14:50 | 25.80017 | -80.28763 | 20 ft | 31 kts | 267° |
| 2026-05-05 14:50 | 25.80008 | -80.29008 | 20 ft | 33 kts | 267° |
| 2026-05-05 14:50 | 25.79997 | -80.29265 | 20 ft | 31 kts | 267° |
| 2026-05-05 14:51 | 25.79988 | -80.29505 | 18 ft | 33 kts | 267° |
| 2026-05-05 14:51 | 25.79981 | -80.29673 | 18 ft | 27 kts | 267° |
| 2026-05-05 14:51 | 25.79973 | -80.29840 | 18 ft | 20 kts | 267° |
| 2026-05-05 14:51 | 25.79971 | -80.29973 | 17 ft | 12 kts | 272° |
| 2026-05-05 14:52 | 25.79970 | -80.30048 | 17 ft | 9 kts | 274° |
| 2026-05-05 14:52 | 25.79971 | -80.30056 | 17 ft | 0 kts | 277° |
| 2026-05-05 14:52 | 25.79971 | -80.30057 | 17 ft | 1 kts | 277° |
| 2026-05-05 14:52 | 25.79974 | -80.30068 | 18 ft | 2 kts | 290° |
| 2026-05-05 14:53 | 25.79986 | -80.30093 | 18 ft | 5 kts | 305° |
| 2026-05-05 14:53 | 25.80014 | -80.30121 | 18 ft | 6 kts | 322° |
| 2026-05-05 14:53 | 25.80055 | -80.30124 | 18 ft | 6 kts | 23° |
| 2026-05-05 14:53 | 25.80075 | -80.30079 | 17 ft | 7 kts | 82° |
| 2026-05-05 14:54 | 25.80076 | -80.30061 | 17 ft | 0 kts | 89° |
| 2026-05-05 14:54 | 25.80076 | -80.30054 | 17 ft | 3 kts | 89° |
| 2026-05-05 14:55 | 25.80081 | -80.29895 | 17 ft | 53 kts | 87° |
| 2026-05-05 14:55 | 25.80109 | -80.29208 | 23 ft | 124 kts | 87° |
| 2026-05-05 14:55 | 25.80161 | -80.28029 | 128 ft | 176 kts | 87° |
| 2026-05-05 14:55 | 25.80168 | -80.26664 | 1048 ft | 175 kts | 91° |
| 2026-05-05 14:56 | 25.79954 | -80.25345 | 2077 ft | 175 kts | 103° |
| 2026-05-05 14:56 | 25.79517 | -80.24024 | 2713 ft | 195 kts | 111° |
| 2026-05-05 14:56 | 25.78881 | -80.22537 | 2931 ft | 238 kts | 115° |
| 2026-05-05 14:56 | 25.78082 | -80.20776 | 3000 ft | 265 kts | 116° |
| 2026-05-05 14:57 | 25.77222 | -80.18893 | 3489 ft | 280 kts | 116° |
| 2026-05-05 14:57 | 25.76312 | -80.17015 | 4554 ft | 277 kts | 118° |
| 2026-05-05 14:57 | 25.75373 | -80.15118 | 5603 ft | 281 kts | 120° |
| 2026-05-05 14:57 | 25.74434 | -80.13227 | 6577 ft | 284 kts | 120° |
| 2026-05-05 14:58 | 25.73498 | -80.11256 | 7547 ft | 290 kts | 116° |
| 2026-05-05 14:58 | 25.72724 | -80.09157 | 8480 ft | 298 kts | 112° |
| 2026-05-05 14:58 | 25.71995 | -80.06969 | 9410 ft | 306 kts | 111° |
| 2026-05-05 14:58 | 25.71256 | -80.04717 | 10278 ft | 315 kts | 111° |
| 2026-05-05 14:59 | 25.70490 | -80.02390 | 10692 ft | 339 kts | 111° |
| 2026-05-05 14:59 | 25.69646 | -79.99838 | 11139 ft | 359 kts | 111° |
| 2026-05-05 14:59 | 25.68771 | -79.97191 | 11894 ft | 368 kts | 111° |
| 2026-05-05 14:59 | 25.67890 | -79.94537 | 12723 ft | 375 kts | 111° |
| 2026-05-05 15:00 | 25.66973 | -79.91774 | 13568 ft | 380 kts | 111° |
| 2026-05-05 15:00 | 25.66359 | -79.89922 | 14087 ft | 384 kts | 111° |
| 2026-05-05 15:00 | 25.65119 | -79.86187 | 15010 ft | 393 kts | 111° |
| 2026-05-05 15:00 | 25.64170 | -79.83333 | 15692 ft | 399 kts | 110° |
| 2026-05-05 15:01 | 25.63211 | -79.80454 | 16398 ft | 405 kts | 110° |
| 2026-05-05 15:01 | 25.62215 | -79.77465 | 17126 ft | 410 kts | 110° |
| 2026-05-05 15:01 | 25.61285 | -79.74676 | 17771 ft | 416 kts | 110° |
| 2026-05-05 15:01 | 25.60282 | -79.71669 | 18433 ft | 422 kts | 110° |
| 2026-05-05 15:02 | 25.59219 | -79.68596 | 19015 ft | 427 kts | 111° |
| 2026-05-05 15:02 | 25.58118 | -79.65561 | 19581 ft | 432 kts | 112° |
| 2026-05-05 15:02 | 25.56988 | -79.62477 | 20166 ft | 436 kts | 112° |
| 2026-05-05 15:02 | 25.55818 | -79.59283 | 20769 ft | 441 kts | 112° |
| 2026-05-05 15:03 | 25.54682 | -79.56181 | 21347 ft | 445 kts | 111° |
| 2026-05-05 15:03 | 25.53505 | -79.52969 | 21942 ft | 450 kts | 111° |
| 2026-05-05 15:03 | 25.52327 | -79.49752 | 22497 ft | 454 kts | 111° |
| 2026-05-05 15:03 | 25.51124 | -79.46472 | 23062 ft | 459 kts | 111° |
| 2026-05-05 15:04 | 25.49916 | -79.43177 | 23609 ft | 463 kts | 111° |
| 2026-05-05 15:04 | 25.48707 | -79.39884 | 24087 ft | 467 kts | 112° |
| 2026-05-05 15:04 | 25.47468 | -79.36513 | 24583 ft | 470 kts | 112° |
| 2026-05-05 15:04 | 25.46236 | -79.33162 | 25056 ft | 473 kts | 112° |
| 2026-05-05 15:05 | 25.43747 | -79.26402 | 25969 ft | 480 kts | 112° |
| 2026-05-05 15:05 | 25.42481 | -79.22966 | 26426 ft | 483 kts | 112° |
| 2026-05-05 15:05 | 25.41211 | -79.19524 | 26871 ft | 486 kts | 112° |
| 2026-05-05 15:06 | 25.39928 | -79.16049 | 27322 ft | 489 kts | 112° |
| 2026-05-05 15:06 | 25.38633 | -79.12542 | 27762 ft | 493 kts | 112° |
| 2026-05-05 15:06 | 25.37335 | -79.09034 | 28194 ft | 496 kts | 112° |
| 2026-05-05 15:06 | 25.36019 | -79.05477 | 28642 ft | 499 kts | 112° |
| 2026-05-05 15:07 | 25.34695 | -79.01906 | 29107 ft | 501 kts | 112° |
| 2026-05-05 15:07 | 25.33383 | -78.98368 | 29534 ft | 505 kts | 112° |
| 2026-05-05 15:07 | 25.32047 | -78.94769 | 29946 ft | 508 kts | 112° |
| 2026-05-05 15:07 | 25.30706 | -78.91156 | 30317 ft | 511 kts | 112° |
| 2026-05-05 15:08 | 25.29351 | -78.87511 | 30649 ft | 515 kts | 112° |
| 2026-05-05 15:08 | 25.27972 | -78.83806 | 30965 ft | 518 kts | 111° |
| 2026-05-05 15:08 | 25.26592 | -78.80099 | 31304 ft | 522 kts | 111° |
| 2026-05-05 15:08 | 25.25233 | -78.76454 | 31641 ft | 525 kts | 111° |
| 2026-05-05 15:09 | 25.23810 | -78.72638 | 32006 ft | 528 kts | 111° |
| 2026-05-05 15:09 | 25.22427 | -78.68936 | 32469 ft | 527 kts | 110° |
| 2026-05-05 15:09 | 25.21040 | -78.65224 | 33058 ft | 524 kts | 111° |
| 2026-05-05 15:09 | 25.19638 | -78.61479 | 33589 ft | 522 kts | 110° |
| 2026-05-05 15:10 | 25.18248 | -78.57782 | 34035 ft | 523 kts | 111° |
| 2026-05-05 15:10 | 25.16784 | -78.54113 | 34396 ft | 524 kts | 112° |
| 2026-05-05 15:10 | 25.15286 | -78.50460 | 34753 ft | 524 kts | 112° |
| 2026-05-05 15:10 | 25.13778 | -78.46798 | 35110 ft | 524 kts | 112° |
| 2026-05-05 15:11 | 25.12266 | -78.43122 | 35489 ft | 524 kts | 112° |
| 2026-05-05 15:11 | 25.10755 | -78.39448 | 35845 ft | 524 kts | 111° |
| 2026-05-05 15:11 | 25.09248 | -78.35784 | 36191 ft | 525 kts | 111° |
| 2026-05-05 15:11 | 25.07739 | -78.32116 | 36532 ft | 525 kts | 111° |
| 2026-05-05 15:12 | 25.06228 | -78.28445 | 36868 ft | 525 kts | 111° |
| 2026-05-05 15:12 | 25.04734 | -78.24817 | 37201 ft | 526 kts | 111° |
| 2026-05-05 15:12 | 25.03220 | -78.21145 | 37536 ft | 526 kts | 111° |
| 2026-05-05 15:12 | 25.01711 | -78.17487 | 37880 ft | 526 kts | 111° |
| 2026-05-05 15:13 | 25.00188 | -78.13797 | 38221 ft | 526 kts | 111° |
| 2026-05-05 15:13 | 24.98677 | -78.10141 | 38559 ft | 525 kts | 111° |
| 2026-05-05 15:13 | 24.97159 | -78.06471 | 38854 ft | 525 kts | 111° |
| 2026-05-05 15:13 | 24.95640 | -78.02801 | 39010 ft | 528 kts | 111° |
| 2026-05-05 15:14 | 24.94136 | -77.99169 | 39052 ft | 531 kts | 111° |
| 2026-05-05 15:14 | 24.91023 | -77.91664 | 39049 ft | 532 kts | 111° |
| 2026-05-05 15:15 | 24.87968 | -77.84312 | 39053 ft | 531 kts | 111° |
| 2026-05-05 15:15 | 24.84889 | -77.76915 | 39052 ft | 531 kts | 111° |
| 2026-05-05 15:16 | 24.81806 | -77.69518 | 39022 ft | 531 kts | 111° |
| 2026-05-05 15:16 | 24.78723 | -77.62136 | 39056 ft | 530 kts | 111° |
| 2026-05-05 15:17 | 24.75656 | -77.54860 | 39058 ft | 530 kts | 115° |
| 2026-05-05 15:17 | 24.71780 | -77.47916 | 39059 ft | 530 kts | 122° |
| 2026-05-05 15:18 | 24.67587 | -77.41253 | 39056 ft | 531 kts | 124° |
| 2026-05-05 15:18 | 24.63352 | -77.34592 | 39057 ft | 531 kts | 123° |
| 2026-05-05 15:19 | 24.59156 | -77.27908 | 39059 ft | 530 kts | 123° |
| 2026-05-05 15:19 | 24.55027 | -77.21285 | 39068 ft | 530 kts | 123° |
| 2026-05-05 15:20 | 24.50852 | -77.14588 | 39067 ft | 527 kts | 123° |
| 2026-05-05 15:20 | 24.46703 | -77.07942 | 39068 ft | 526 kts | 123° |
| 2026-05-05 15:21 | 24.42580 | -77.01349 | 39059 ft | 526 kts | 123° |
| 2026-05-05 15:21 | 24.38422 | -76.94711 | 39065 ft | 524 kts | 123° |
| 2026-05-05 15:22 | 24.34313 | -76.88160 | 39067 ft | 524 kts | 123° |
| 2026-05-05 15:22 | 24.30171 | -76.81566 | 39067 ft | 523 kts | 124° |
| 2026-05-05 15:23 | 24.26045 | -76.75005 | 39074 ft | 522 kts | 124° |
| 2026-05-05 15:23 | 24.21924 | -76.68461 | 39071 ft | 522 kts | 124° |
| 2026-05-05 15:24 | 24.17798 | -76.61917 | 39072 ft | 522 kts | 124° |
| 2026-05-05 15:24 | 24.13687 | -76.55407 | 39074 ft | 522 kts | 124° |
| 2026-05-05 15:25 | 24.09547 | -76.48859 | 39084 ft | 522 kts | 125° |
| 2026-05-05 15:25 | 24.05459 | -76.42403 | 39076 ft | 519 kts | 125° |
| 2026-05-05 15:26 | 24.01344 | -76.35910 | 39079 ft | 519 kts | 125° |
| 2026-05-05 15:26 | 23.97223 | -76.29418 | 39076 ft | 519 kts | 125° |
| 2026-05-05 15:27 | 23.93095 | -76.22922 | 39076 ft | 519 kts | 125° |
| 2026-05-05 15:27 | 23.88958 | -76.16423 | 39078 ft | 519 kts | 125° |
| 2026-05-05 15:28 | 23.84837 | -76.09955 | 39076 ft | 518 kts | 126° |
| 2026-05-05 15:28 | 23.80746 | -76.03543 | 39076 ft | 516 kts | 126° |
| 2026-05-05 15:29 | 23.76628 | -75.97098 | 39076 ft | 516 kts | 126° |
| 2026-05-05 15:29 | 23.72524 | -75.90682 | 39063 ft | 516 kts | 126° |
| 2026-05-05 15:30 | 23.68428 | -75.84287 | 39076 ft | 516 kts | 126° |
| 2026-05-05 15:30 | 23.64333 | -75.77902 | 39074 ft | 516 kts | 126° |
| 2026-05-05 15:31 | 23.60200 | -75.71464 | 39078 ft | 514 kts | 126° |
| 2026-05-05 15:31 | 23.56133 | -75.65139 | 39080 ft | 513 kts | 126° |
| 2026-05-05 15:32 | 23.52037 | -75.58775 | 39080 ft | 513 kts | 126° |
| 2026-05-05 15:32 | 23.47917 | -75.52384 | 39078 ft | 513 kts | 126° |
| 2026-05-05 15:33 | 23.43814 | -75.46026 | 39078 ft | 513 kts | 126° |
| 2026-05-05 15:33 | 23.39738 | -75.39718 | 39076 ft | 512 kts | 126° |
| 2026-05-05 15:34 | 23.35635 | -75.33375 | 39071 ft | 510 kts | 127° |
| 2026-05-05 15:34 | 23.31536 | -75.27047 | 39079 ft | 510 kts | 127° |
| 2026-05-05 15:35 | 23.27442 | -75.20735 | 39080 ft | 511 kts | 127° |
| 2026-05-05 15:35 | 23.23343 | -75.14421 | 39081 ft | 510 kts | 127° |
| 2026-05-05 15:36 | 23.19242 | -75.08114 | 39079 ft | 510 kts | 127° |
| 2026-05-05 15:36 | 23.15142 | -75.01815 | 39078 ft | 510 kts | 127° |
| 2026-05-05 15:37 | 23.11052 | -74.95539 | 39082 ft | 508 kts | 127° |
| 2026-05-05 15:37 | 23.06998 | -74.89328 | 39082 ft | 508 kts | 127° |
| 2026-05-05 15:38 | 23.02914 | -74.83076 | 39079 ft | 509 kts | 127° |
| 2026-05-05 15:38 | 22.98803 | -74.76792 | 39071 ft | 509 kts | 127° |
| 2026-05-05 15:39 | 22.94691 | -74.70513 | 39077 ft | 510 kts | 127° |
| 2026-05-05 15:39 | 22.91262 | -74.65283 | 39077 ft | 511 kts | 127° |
| 2026-05-05 15:40 | 22.87159 | -74.59032 | 39077 ft | 510 kts | 127° |
| 2026-05-05 15:40 | 22.83035 | -74.52755 | 39087 ft | 510 kts | 127° |
| 2026-05-05 15:41 | 22.78917 | -74.46497 | 39086 ft | 510 kts | 127° |
| 2026-05-05 15:41 | 22.74788 | -74.40228 | 39078 ft | 510 kts | 127° |
| 2026-05-05 15:42 | 22.70669 | -74.33983 | 39078 ft | 510 kts | 127° |
| 2026-05-05 15:42 | 22.66534 | -74.27720 | 39084 ft | 508 kts | 127° |
| 2026-05-05 15:43 | 22.62422 | -74.21501 | 39072 ft | 508 kts | 127° |
| 2026-05-05 15:43 | 22.58329 | -74.15316 | 38835 ft | 508 kts | 126° |
| 2026-05-05 15:43 | 22.56267 | -74.12204 | 38205 ft | 508 kts | 127° |
| 2026-05-05 15:44 | 22.54205 | -74.09091 | 37627 ft | 507 kts | 127° |
| 2026-05-05 15:44 | 22.52157 | -74.06003 | 37034 ft | 506 kts | 127° |
| 2026-05-05 15:44 | 22.50099 | -74.02901 | 36474 ft | 505 kts | 127° |
| 2026-05-05 15:44 | 22.48068 | -73.99841 | 35912 ft | 504 kts | 127° |
| 2026-05-05 15:45 | 22.46010 | -73.96743 | 35284 ft | 503 kts | 127° |
| 2026-05-05 15:45 | 22.43960 | -73.93660 | 34550 ft | 506 kts | 128° |
| 2026-05-05 15:45 | 22.41911 | -73.90580 | 33643 ft | 511 kts | 128° |
| 2026-05-05 15:45 | 22.39833 | -73.87461 | 32678 ft | 515 kts | 128° |
| 2026-05-05 15:46 | 22.37736 | -73.84314 | 31760 ft | 518 kts | 128° |
| 2026-05-05 15:46 | 22.35612 | -73.81127 | 30861 ft | 522 kts | 128° |
| 2026-05-05 15:46 | 22.33499 | -73.77956 | 30232 ft | 518 kts | 128° |
| 2026-05-05 15:46 | 22.31401 | -73.74809 | 29455 ft | 515 kts | 128° |
| 2026-05-05 15:47 | 22.29352 | -73.71737 | 28755 ft | 511 kts | 128° |
| 2026-05-05 15:47 | 22.27239 | -73.68571 | 28020 ft | 508 kts | 128° |
| 2026-05-05 15:47 | 22.25196 | -73.65513 | 27415 ft | 500 kts | 128° |
| 2026-05-05 15:47 | 22.23163 | -73.62471 | 26868 ft | 494 kts | 128° |
| 2026-05-05 15:48 | 22.21154 | -73.59467 | 26166 ft | 491 kts | 128° |
| 2026-05-05 15:48 | 22.19175 | -73.56510 | 25648 ft | 483 kts | 128° |
| 2026-05-05 15:48 | 22.17212 | -73.53580 | 25004 ft | 480 kts | 128° |
| 2026-05-05 15:48 | 22.15287 | -73.50708 | 24436 ft | 475 kts | 128° |
| 2026-05-05 15:49 | 22.13363 | -73.47839 | 23840 ft | 471 kts | 128° |
| 2026-05-05 15:49 | 22.11454 | -73.44994 | 23217 ft | 466 kts | 128° |
| 2026-05-05 15:49 | 22.09567 | -73.42182 | 22559 ft | 461 kts | 128° |
| 2026-05-05 15:49 | 22.07690 | -73.39386 | 21907 ft | 456 kts | 128° |
| 2026-05-05 15:50 | 22.05841 | -73.36634 | 21272 ft | 451 kts | 128° |
| 2026-05-05 15:50 | 22.04011 | -73.33912 | 20645 ft | 446 kts | 128° |
| 2026-05-05 15:50 | 22.02209 | -73.31232 | 20043 ft | 441 kts | 128° |
| 2026-05-05 15:50 | 22.00412 | -73.28562 | 19503 ft | 434 kts | 129° |
| 2026-05-05 15:51 | 21.98651 | -73.25945 | 18907 ft | 429 kts | 129° |
| 2026-05-05 15:51 | 21.96911 | -73.23361 | 18258 ft | 426 kts | 129° |
| 2026-05-05 15:51 | 21.95184 | -73.20799 | 17605 ft | 421 kts | 129° |
| 2026-05-05 15:51 | 21.93464 | -73.18249 | 16930 ft | 417 kts | 129° |
| 2026-05-05 15:52 | 21.91774 | -73.15743 | 16294 ft | 412 kts | 129° |
| 2026-05-05 15:52 | 21.90098 | -73.13259 | 15653 ft | 407 kts | 129° |
| 2026-05-05 15:52 | 21.88440 | -73.10804 | 15084 ft | 401 kts | 129° |
| 2026-05-05 15:52 | 21.86816 | -73.08399 | 14444 ft | 398 kts | 129° |
| 2026-05-05 15:53 | 21.85214 | -73.06028 | 13841 ft | 394 kts | 129° |
| 2026-05-05 15:53 | 21.83614 | -73.03661 | 13200 ft | 388 kts | 128° |
| 2026-05-05 15:53 | 21.82321 | -73.01116 | 12558 ft | 387 kts | 112° |
| 2026-05-05 15:53 | 21.81736 | -72.98309 | 11915 ft | 385 kts | 99° |
| 2026-05-05 15:54 | 21.81470 | -72.95449 | 11304 ft | 380 kts | 96° |
| 2026-05-05 15:54 | 21.81275 | -72.92629 | 10896 ft | 370 kts | 96° |
| 2026-05-05 15:54 | 21.81103 | -72.89922 | 10682 ft | 354 kts | 96° |
| 2026-05-05 15:54 | 21.80940 | -72.87331 | 10506 ft | 339 kts | 96° |
| 2026-05-05 15:55 | 21.80785 | -72.84850 | 10337 ft | 324 kts | 96° |
| 2026-05-05 15:55 | 21.80637 | -72.82482 | 10178 ft | 312 kts | 96° |
| 2026-05-05 15:55 | 21.80492 | -72.80183 | 9836 ft | 307 kts | 96° |
| 2026-05-05 15:55 | 21.80346 | -72.77888 | 9402 ft | 305 kts | 96° |
| 2026-05-05 15:56 | 21.80203 | -72.75628 | 8993 ft | 302 kts | 96° |
| 2026-05-05 15:56 | 21.80060 | -72.73376 | 8585 ft | 299 kts | 95° |
| 2026-05-05 15:56 | 21.79919 | -72.71161 | 8194 ft | 296 kts | 95° |
| 2026-05-05 15:56 | 21.79779 | -72.68952 | 7795 ft | 294 kts | 95° |
| 2026-05-05 15:57 | 21.79640 | -72.66766 | 7394 ft | 292 kts | 95° |
| 2026-05-05 15:57 | 21.79502 | -72.64598 | 7009 ft | 289 kts | 95° |
| 2026-05-05 15:57 | 21.79366 | -72.62473 | 6639 ft | 286 kts | 95° |
| 2026-05-05 15:57 | 21.79230 | -72.60346 | 6253 ft | 283 kts | 95° |
| 2026-05-05 15:58 | 21.79100 | -72.58310 | 6091 ft | 273 kts | 95° |
| 2026-05-05 15:58 | 21.78971 | -72.56291 | 5937 ft | 256 kts | 95° |
| 2026-05-05 15:58 | 21.78852 | -72.54432 | 5817 ft | 245 kts | 95° |
| 2026-05-05 15:58 | 21.78734 | -72.52602 | 5422 ft | 248 kts | 95° |
| 2026-05-05 15:59 | 21.78614 | -72.50749 | 4928 ft | 248 kts | 94° |
| 2026-05-05 15:59 | 21.78495 | -72.48920 | 4471 ft | 237 kts | 95° |
| 2026-05-05 15:59 | 21.78385 | -72.47203 | 4004 ft | 228 kts | 94° |
| 2026-05-05 15:59 | 21.78292 | -72.45512 | 3629 ft | 218 kts | 94° |
| 2026-05-05 16:00 | 21.78214 | -72.43956 | 3384 ft | 204 kts | 94° |
| 2026-05-05 16:00 | 21.78142 | -72.42482 | 3157 ft | 192 kts | 94° |
| 2026-05-05 16:00 | 21.78073 | -72.41087 | 2919 ft | 180 kts | 94° |
| 2026-05-05 16:00 | 21.78010 | -72.39792 | 2674 ft | 167 kts | 94° |
| 2026-05-05 16:01 | 21.77950 | -72.38586 | 2430 ft | 157 kts | 93° |
| 2026-05-05 16:01 | 21.77894 | -72.37443 | 2201 ft | 151 kts | 93° |
| 2026-05-05 16:01 | 21.77838 | -72.36324 | 1952 ft | 148 kts | 93° |
| 2026-05-05 16:01 | 21.77784 | -72.35230 | 1685 ft | 145 kts | 93° |
| 2026-05-05 16:02 | 21.77730 | -72.34122 | 1283 ft | 151 kts | 94° |
| 2026-05-05 16:02 | 21.77672 | -72.32980 | 949 ft | 152 kts | 93° |
| 2026-05-05 16:02 | 21.77617 | -72.31858 | 742 ft | 147 kts | 93° |
| 2026-05-05 16:02 | 21.77566 | -72.30800 | 559 ft | 140 kts | 93° |
| 2026-05-05 16:03 | 21.77518 | -72.29780 | 369 ft | 136 kts | 94° |
| 2026-05-05 16:03 | 21.77468 | -72.28763 | 196 ft | 136 kts | 94° |
| 2026-05-05 16:03 | 21.77417 | -72.27749 | 44 ft | 130 kts | 94° |
| 2026-05-05 16:03 | 21.77376 | -72.26956 | 42 ft | 77 kts | 93° |
| 2026-05-05 16:04 | 21.77355 | -72.26543 | 41 ft | 46 kts | 93° |
| 2026-05-05 16:04 | 21.77338 | -72.26210 | 40 ft | 43 kts | 91° |
| 2026-05-05 16:04 | 21.77325 | -72.25903 | 41 ft | 40 kts | 93° |
| 2026-05-05 16:04 | 21.77311 | -72.25657 | 40 ft | 20 kts | 94° |
| 2026-05-05 16:05 | 21.77333 | -72.25580 | 41 ft | 10 kts | 46° |
| 2026-05-05 16:05 | 21.77336 | -72.25560 | 41 ft | 1 kts | 113° |
| 2026-05-05 16:05 | 21.77333 | -72.25559 | 41 ft | 1 kts | 138° |
| 2026-05-05 16:05 | 21.77322 | -72.25567 | 41 ft | 3 kts | 230° |
| 2026-05-05 16:06 | 21.77314 | -72.25656 | 40 ft | 21 kts | 272° |
| 2026-05-05 16:06 | 21.77323 | -72.25827 | 41 ft | 24 kts | 273° |
| 2026-05-05 16:06 | 21.77332 | -72.26013 | 41 ft | 26 kts | 273° |
| 2026-05-05 16:06 | 21.77342 | -72.26218 | 40 ft | 29 kts | 273° |
| 2026-05-05 16:07 | 21.77352 | -72.26435 | 42 ft | 30 kts | 272° |
| 2026-05-05 16:07 | 21.77362 | -72.26672 | 40 ft | 33 kts | 272° |
| 2026-05-05 16:07 | 21.77374 | -72.26919 | 42 ft | 34 kts | 272° |
| 2026-05-05 16:07 | 21.77386 | -72.27151 | 41 ft | 20 kts | 273° |
| 2026-05-05 16:08 | 21.77397 | -72.27190 | 37 ft | 5 kts | 302° |
| 2026-05-05 16:08 | 21.77427 | -72.27204 | 42 ft | 5 kts | 357° |
| 2026-05-05 16:08 | 21.77458 | -72.27205 | 43 ft | 4 kts | 357° |
| 2026-05-05 16:08 | 21.77482 | -72.27203 | 44 ft | 3 kts | 9° |
| 2026-05-05 16:09 | 21.77507 | -72.27192 | 45 ft | 4 kts | 28° |
| 2026-05-05 16:09 | 21.77533 | -72.27174 | 46 ft | 3 kts | 33° |
| 2026-05-05 16:09 | 21.77559 | -72.27156 | 46 ft | 5 kts | 33° |
| 2026-05-05 16:09 | 21.77565 | -72.27151 | 46 ft | 0 kts | 33° |